sensor_id;sensor_type;location;lat;lon;timestamp;pressure;altitude;pressure_sealevel;temperature;humidity
84815;BME280;75050;53.190;5.562;2024-01-07T00:01:29;102245.03;;;5.78;81.04
84815;BME280;75050;53.190;5.562;2024-01-07T00:03:54;102207.47;;;5.55;80.96
84815;BME280;75050;53.190;5.562;2024-01-07T00:06:20;102247.66;;;5.75;81.11
84815;BME280;75050;53.190;5.562;2024-01-07T00:08:45;102239.94;;;5.72;80.92
84815;BME280;75050;53.190;5.562;2024-01-07T00:11:12;102251.13;;;5.74;81.08
84815;BME280;75050;53.190;5.562;2024-01-07T00:13:37;102245.16;;;5.69;81.06
84815;BME280;75050;53.190;5.562;2024-01-07T00:16:03;102258.06;;;5.73;80.97
84815;BME280;75050;53.190;5.562;2024-01-07T00:18:28;102262.34;;;5.73;80.81
84815;BME280;75050;53.190;5.562;2024-01-07T00:20:54;102258.91;;;5.72;81.06
84815;BME280;75050;53.190;5.562;2024-01-07T00:23:19;102263.22;;;5.72;81.21
84815;BME280;75050;53.190;5.562;2024-01-07T00:25:49;102272.66;;;5.71;80.98
84815;BME280;75050;53.190;5.562;2024-01-07T00:28:14;102270.97;;;5.72;80.95
84815;BME280;75050;53.190;5.562;2024-01-07T00:30:40;102269.34;;;5.65;80.95
84815;BME280;75050;53.190;5.562;2024-01-07T00:33:05;102246.28;;;5.53;81.04
84815;BME280;75050;53.190;5.562;2024-01-07T00:35:30;102279.59;;;5.70;80.91
84815;BME280;75050;53.190;5.562;2024-01-07T00:37:56;102271.94;;;5.65;80.83
84815;BME280;75050;53.190;5.562;2024-01-07T00:40:22;102258.28;;;5.56;81.04
84815;BME280;75050;53.190;5.562;2024-01-07T00:42:48;102279.66;;;5.68;80.89
84815;BME280;75050;53.190;5.562;2024-01-07T00:45:13;102279.66;;;5.67;80.91
84815;BME280;75050;53.190;5.562;2024-01-07T00:47:39;102289.16;;;5.66;80.68
84815;BME280;75050;53.190;5.562;2024-01-07T00:50:04;102274.63;;;5.56;80.93
84815;BME280;75050;53.190;5.562;2024-01-07T00:52:30;102290.88;;;5.66;81.10
84815;BME280;75050;53.190;5.562;2024-01-07T00:54:55;102280.66;;;5.57;81.01
84815;BME280;75050;53.190;5.562;2024-01-07T00:57:22;102298.63;;;5.66;80.88
84815;BME280;75050;53.190;5.562;2024-01-07T00:59:47;102297.78;;;5.65;80.81
84815;BME280;75050;53.190;5.562;2024-01-07T01:02:12;102302.97;;;5.64;80.83
84815;BME280;75050;53.190;5.562;2024-01-07T01:04:39;102299.63;;;5.57;80.87
84815;BME280;75050;53.190;5.562;2024-01-07T01:07:05;102304.69;;;5.63;80.93
84815;BME280;75050;53.190;5.562;2024-01-07T01:09:30;102311.59;;;5.63;80.88
84815;BME280;75050;53.190;5.562;2024-01-07T01:11:55;102309.88;;;5.62;80.93
84815;BME280;75050;53.190;5.562;2024-01-07T01:14:21;102311.63;;;5.61;80.94
84815;BME280;75050;53.190;5.562;2024-01-07T01:16:46;102315.94;;;5.61;80.82
84815;BME280;75050;53.190;5.562;2024-01-07T01:19:12;102309.06;;;5.60;80.87
84815;BME280;75050;53.190;5.562;2024-01-07T01:21:37;102314.25;;;5.58;80.78
84815;BME280;75050;53.190;5.562;2024-01-07T01:24:02;102320.31;;;5.57;80.78
84815;BME280;75050;53.190;5.562;2024-01-07T01:26:28;102315.97;;;5.58;80.72
84815;BME280;75050;53.190;5.562;2024-01-07T01:28:53;102316.81;;;5.58;80.93
84815;BME280;75050;53.190;5.562;2024-01-07T01:31:18;102319.41;;;5.57;80.76
84815;BME280;75050;53.190;5.562;2024-01-07T01:33:44;102319.41;;;5.57;80.76
84815;BME280;75050;53.190;5.562;2024-01-07T01:36:09;102312.66;;;5.50;80.76
84815;BME280;75050;53.190;5.562;2024-01-07T01:38:35;102316.91;;;5.52;80.63
84815;BME280;75050;53.190;5.562;2024-01-07T01:41:00;102321.19;;;5.55;80.74
84815;BME280;75050;53.190;5.562;2024-01-07T01:43:26;102328.09;;;5.54;80.86
84815;BME280;75050;53.190;5.562;2024-01-07T01:45:53;102334.16;;;5.53;80.67
84815;BME280;75050;53.190;5.562;2024-01-07T01:48:19;102327.25;;;5.52;80.55
84815;BME280;75050;53.190;5.562;2024-01-07T01:50:46;102334.16;;;5.52;80.70
84815;BME280;75050;53.190;5.562;2024-01-07T01:53:12;102313.69;;;5.37;80.58
84815;BME280;75050;53.190;5.562;2024-01-07T01:55:37;102344.50;;;5.52;80.69
84815;BME280;75050;53.190;5.562;2024-01-07T01:58:03;102353.97;;;5.51;80.68
84815;BME280;75050;53.190;5.562;2024-01-07T02:00:30;102347.94;;;5.51;80.66
84815;BME280;75050;53.190;5.562;2024-01-07T02:02:55;102362.59;;;5.50;80.61
84815;BME280;75050;53.190;5.562;2024-01-07T02:05:21;102363.47;;;5.49;80.48
84815;BME280;75050;53.190;5.562;2024-01-07T02:07:47;102364.38;;;5.47;80.18
84815;BME280;75050;53.190;5.562;2024-01-07T02:10:13;102367.78;;;5.47;80.48
84815;BME280;75050;53.190;5.562;2024-01-07T02:12:38;102359.28;;;5.42;80.54
84815;BME280;75050;53.190;5.562;2024-01-07T02:15:04;102358.38;;;5.43;80.55
84815;BME280;75050;53.190;5.562;2024-01-07T02:17:30;102348.16;;;5.34;80.36
84815;BME280;75050;53.190;5.562;2024-01-07T02:19:55;102374.72;;;5.47;80.60
84815;BME280;75050;53.190;5.562;2024-01-07T02:22:20;102370.44;;;5.43;80.53
84815;BME280;75050;53.190;5.562;2024-01-07T02:24:46;102367.06;;;5.36;80.36
84815;BME280;75050;53.190;5.562;2024-01-07T02:27:11;102385.94;;;5.44;80.43
84815;BME280;75050;53.190;5.562;2024-01-07T02:29:37;102370.56;;;5.35;80.46
84815;BME280;75050;53.190;5.562;2024-01-07T02:32:02;102387.66;;;5.44;80.64
84815;BME280;75050;53.190;5.562;2024-01-07T02:34:28;102379.94;;;5.42;80.41
84815;BME280;75050;53.190;5.562;2024-01-07T02:36:53;102382.53;;;5.42;80.20
84815;BME280;75050;53.190;5.562;2024-01-07T02:39:18;102367.06;;;5.38;80.57
84815;BME280;75050;53.190;5.562;2024-01-07T02:41:44;102373.97;;;5.39;80.32
84815;BME280;75050;53.190;5.562;2024-01-07T02:44:09;102359.38;;;5.33;80.50
84815;BME280;75050;53.190;5.562;2024-01-07T02:46:35;102343.16;;;5.21;80.26
84815;BME280;75050;53.190;5.562;2024-01-07T02:49:00;102367.16;;;5.32;80.40
84815;BME280;75050;53.190;5.562;2024-01-07T02:51:25;102384.28;;;5.40;80.32
84815;BME280;75050;53.190;5.562;2024-01-07T02:53:51;102380.91;;;5.34;80.37
84815;BME280;75050;53.190;5.562;2024-01-07T02:56:16;102378.28;;;5.37;79.97
84815;BME280;75050;53.190;5.562;2024-01-07T02:58:41;102386.00;;;5.38;80.07
84815;BME280;75050;53.190;5.562;2024-01-07T03:01:10;102386.88;;;5.37;80.32
84815;BME280;75050;53.190;5.562;2024-01-07T03:03:36;102388.63;;;5.37;80.36
84815;BME280;75050;53.190;5.562;2024-01-07T03:06:02;102391.22;;;5.37;80.27
84815;BME280;75050;53.190;5.562;2024-01-07T03:08:27;102398.09;;;5.36;80.30
84815;BME280;75050;53.190;5.562;2024-01-07T03:10:53;102385.31;;;5.28;80.17
84815;BME280;75050;53.190;5.562;2024-01-07T03:13:19;102400.72;;;5.35;80.31
84815;BME280;75050;53.190;5.562;2024-01-07T03:15:44;102392.22;;;5.26;80.31
84815;BME280;75050;53.190;5.562;2024-01-07T03:18:10;102399.06;;;5.30;80.10
84815;BME280;75050;53.190;5.562;2024-01-07T03:20:35;102409.38;;;5.30;80.44
84815;BME280;75050;53.190;5.562;2024-01-07T03:23:00;102399.09;;;5.25;80.25
84815;BME280;75050;53.190;5.562;2024-01-07T03:25:26;102417.09;;;5.32;80.29
84815;BME280;75050;53.190;5.562;2024-01-07T03:27:51;102420.56;;;5.29;80.16
84815;BME280;75050;53.190;5.562;2024-01-07T03:30:17;102414.56;;;5.28;80.12
84815;BME280;75050;53.190;5.562;2024-01-07T03:32:42;102424.00;;;5.31;80.13
84815;BME280;75050;53.190;5.562;2024-01-07T03:35:08;102424.91;;;5.28;80.45
84815;BME280;75050;53.190;5.562;2024-01-07T03:37:35;102434.34;;;5.29;80.43
84815;BME280;75050;53.190;5.562;2024-01-07T03:40:01;102432.66;;;5.27;80.42
84815;BME280;75050;53.190;5.562;2024-01-07T03:42:27;102438.66;;;5.27;80.30
84815;BME280;75050;53.190;5.562;2024-01-07T03:44:52;102440.44;;;5.24;80.20
84815;BME280;75050;53.190;5.562;2024-01-07T03:47:17;102443.06;;;5.22;80.33
84815;BME280;75050;53.190;5.562;2024-01-07T03:49:43;102451.59;;;5.27;80.27
84815;BME280;75050;53.190;5.562;2024-01-07T03:52:08;102457.66;;;5.26;80.09
84815;BME280;75050;53.190;5.562;2024-01-07T03:54:34;102445.63;;;5.22;80.01
84815;BME280;75050;53.190;5.562;2024-01-07T03:56:59;102456.78;;;5.26;80.16
84815;BME280;75050;53.190;5.562;2024-01-07T03:59:25;102458.50;;;5.25;80.17
84815;BME280;75050;53.190;5.562;2024-01-07T04:01:54;102442.25;;;5.14;79.99
84815;BME280;75050;53.190;5.562;2024-01-07T04:04:19;102425.16;;;5.06;80.02
84815;BME280;75050;53.190;5.562;2024-01-07T04:06:45;102459.41;;;5.20;80.08
84815;BME280;75050;53.190;5.562;2024-01-07T04:09:10;102425.22;;;5.00;79.92
84815;BME280;75050;53.190;5.562;2024-01-07T04:11:42;102443.22;;;5.06;80.33
84815;BME280;75050;53.190;5.562;2024-01-07T04:14:08;102440.66;;;5.03;80.13
84815;BME280;75050;53.190;5.562;2024-01-07T04:16:34;102444.97;;;5.04;80.07
84815;BME280;75050;53.190;5.562;2024-01-07T04:18:59;102461.22;;;5.13;80.02
84815;BME280;75050;53.190;5.562;2024-01-07T04:21:25;102474.91;;;5.20;79.95
84815;BME280;75050;53.190;5.562;2024-01-07T04:23:50;102472.41;;;5.14;80.04
84815;BME280;75050;53.190;5.562;2024-01-07T04:26:16;102484.41;;;5.19;79.81
84815;BME280;75050;53.190;5.562;2024-01-07T04:28:42;102485.25;;;5.18;79.84
84815;BME280;75050;53.190;5.562;2024-01-07T04:31:08;102476.72;;;5.12;79.99
84815;BME280;75050;53.190;5.562;2024-01-07T04:33:33;102486.16;;;5.17;80.07
84815;BME280;75050;53.190;5.562;2024-01-07T04:35:58;102490.53;;;5.08;79.84
84815;BME280;75050;53.190;5.562;2024-01-07T04:38:28;102501.63;;;5.17;79.89
84815;BME280;75050;53.190;5.562;2024-01-07T04:40:54;102512.81;;;5.16;79.97
84815;BME280;75050;53.190;5.562;2024-01-07T04:43:19;102505.97;;;5.17;79.98
84815;BME280;75050;53.190;5.562;2024-01-07T04:45:45;102508.56;;;5.15;80.14
84815;BME280;75050;53.190;5.562;2024-01-07T04:48:10;102499.97;;;5.12;79.90
84815;BME280;75050;53.190;5.562;2024-01-07T04:50:36;102515.44;;;5.15;79.94
84815;BME280;75050;53.190;5.562;2024-01-07T04:53:01;102519.75;;;5.14;79.98
84815;BME280;75050;53.190;5.562;2024-01-07T04:55:27;102511.22;;;5.06;79.82
84815;BME280;75050;53.190;5.562;2024-01-07T04:57:53;102525.78;;;5.13;79.73
84815;BME280;75050;53.190;5.562;2024-01-07T05:00:18;102493.28;;;4.92;79.82
84815;BME280;75050;53.190;5.562;2024-01-07T05:02:44;102533.53;;;5.12;79.86
84815;BME280;75050;53.190;5.562;2024-01-07T05:05:09;102533.53;;;5.12;79.89
84815;BME280;75050;53.190;5.562;2024-01-07T05:07:35;102526.72;;;5.05;79.61
84815;BME280;75050;53.190;5.562;2024-01-07T05:10:00;102539.56;;;5.11;79.88
84815;BME280;75050;53.190;5.562;2024-01-07T05:12:26;102511.34;;;4.93;79.79
84815;BME280;75050;53.190;5.562;2024-01-07T05:14:52;102522.44;;;5.04;79.75
84815;BME280;75050;53.190;5.562;2024-01-07T05:17:17;102541.31;;;5.09;79.89
84815;BME280;75050;53.190;5.562;2024-01-07T05:19:43;102548.22;;;5.07;79.50
84815;BME280;75050;53.190;5.562;2024-01-07T05:22:08;102543.97;;;5.01;79.70
84815;BME280;75050;53.190;5.562;2024-01-07T05:24:36;102555.94;;;5.10;79.78
84815;BME280;75050;53.190;5.562;2024-01-07T05:27:02;102551.69;;;5.07;79.68
84815;BME280;75050;53.190;5.562;2024-01-07T05:29:28;102556.81;;;5.09;79.63
84815;BME280;75050;53.190;5.562;2024-01-07T05:31:53;102555.13;;;5.08;79.59
84815;BME280;75050;53.190;5.562;2024-01-07T05:34:18;102567.19;;;5.07;79.73
84815;BME280;75050;53.190;5.562;2024-01-07T05:36:44;102565.44;;;5.08;79.61
84815;BME280;75050;53.190;5.562;2024-01-07T05:39:09;102550.00;;;4.99;79.53
84815;BME280;75050;53.190;5.562;2024-01-07T05:41:37;102576.63;;;5.07;79.57
84815;BME280;75050;53.190;5.562;2024-01-07T05:44:05;102577.50;;;5.06;79.60
84815;BME280;75050;53.190;5.562;2024-01-07T05:46:31;102576.72;;;4.96;79.44
84815;BME280;75050;53.190;5.562;2024-01-07T05:48:56;102593.84;;;5.05;79.55
84815;BME280;75050;53.190;5.562;2024-01-07T05:51:22;102591.28;;;5.05;79.45
84815;BME280;75050;53.190;5.562;2024-01-07T05:53:47;102605.06;;;5.04;79.49
84815;BME280;75050;53.190;5.562;2024-01-07T05:56:12;102588.75;;;4.99;79.37
84815;BME280;75050;53.190;5.562;2024-01-07T05:58:38;102604.22;;;5.00;79.48
84815;BME280;75050;53.190;5.562;2024-01-07T06:01:03;102586.28;;;4.86;79.31
84815;BME280;75050;53.190;5.562;2024-01-07T06:03:29;102616.25;;;5.01;79.56
84815;BME280;75050;53.190;5.562;2024-01-07T06:05:54;102603.38;;;4.98;79.62
84815;BME280;75050;53.190;5.562;2024-01-07T06:08:19;102599.97;;;4.95;79.41
84815;BME280;75050;53.190;5.562;2024-01-07T06:10:45;102614.56;;;5.00;79.37
84815;BME280;75050;53.190;5.562;2024-01-07T06:13:10;102616.31;;;4.98;79.35
84815;BME280;75050;53.190;5.562;2024-01-07T06:15:36;102613.72;;;5.00;79.34
84815;BME280;75050;53.190;5.562;2024-01-07T06:18:01;102623.16;;;5.01;79.34
84815;BME280;75050;53.190;5.562;2024-01-07T06:20:27;102633.50;;;4.99;79.38
84815;BME280;75050;53.190;5.562;2024-01-07T06:22:53;102619.78;;;4.89;79.21
84815;BME280;75050;53.190;5.562;2024-01-07T06:25:18;102637.81;;;4.99;79.24
84815;BME280;75050;53.190;5.562;2024-01-07T06:27:44;102657.63;;;4.98;79.31
84815;BME280;75050;53.190;5.562;2024-01-07T06:30:09;102646.44;;;4.96;79.22
84815;BME280;75050;53.190;5.562;2024-01-07T06:32:35;102643.91;;;4.89;79.30
84815;BME280;75050;53.190;5.562;2024-01-07T06:35:00;102646.47;;;4.92;79.22
84815;BME280;75050;53.190;5.562;2024-01-07T06:37:26;102667.09;;;4.96;79.32
84815;BME280;75050;53.190;5.562;2024-01-07T06:39:54;102671.38;;;4.96;79.28
84815;BME280;75050;53.190;5.562;2024-01-07T06:42:20;102667.09;;;4.92;79.38
84815;BME280;75050;53.190;5.562;2024-01-07T06:44:45;102682.59;;;4.95;79.27
84815;BME280;75050;53.190;5.562;2024-01-07T06:47:10;102650.88;;;4.75;79.32
84815;BME280;75050;53.190;5.562;2024-01-07T06:49:36;102678.28;;;4.94;79.19
84815;BME280;75050;53.190;5.562;2024-01-07T06:52:01;102662.03;;;4.77;79.20
84815;BME280;75050;53.190;5.562;2024-01-07T06:54:26;102700.69;;;4.94;79.18
84815;BME280;75050;53.190;5.562;2024-01-07T06:56:52;102700.69;;;4.94;79.25
84815;BME280;75050;53.190;5.562;2024-01-07T06:59:17;102707.56;;;4.93;79.15
84815;BME280;75050;53.190;5.562;2024-01-07T07:01:42;102715.31;;;4.93;79.28
84815;BME280;75050;53.190;5.562;2024-01-07T07:04:08;102697.28;;;4.83;79.29
84815;BME280;75050;53.190;5.562;2024-01-07T07:06:33;102693.03;;;4.70;79.33
84815;BME280;75050;53.190;5.562;2024-01-07T07:09:00;102715.34;;;4.86;78.95
84815;BME280;75050;53.190;5.562;2024-01-07T07:11:25;102729.06;;;4.91;79.18
84815;BME280;75050;53.190;5.562;2024-01-07T07:13:51;102726.53;;;4.89;78.99
84815;BME280;75050;53.190;5.562;2024-01-07T07:16:16;102731.69;;;4.86;79.00
84815;BME280;75050;53.190;5.562;2024-01-07T07:18:41;102736.84;;;4.86;79.12
84815;BME280;75050;53.190;5.562;2024-01-07T07:21:07;102715.41;;;4.75;78.68
84815;BME280;75050;53.190;5.562;2024-01-07T07:23:32;102707.69;;;4.66;79.11
84815;BME280;75050;53.190;5.562;2024-01-07T07:25:58;102742.06;;;4.82;79.03
84815;BME280;75050;53.190;5.562;2024-01-07T07:28:23;102756.66;;;4.87;78.95
84815;BME280;75050;53.190;5.562;2024-01-07T07:30:48;102764.41;;;4.87;78.93
84815;BME280;75050;53.190;5.562;2024-01-07T07:33:14;102770.44;;;4.86;79.01
84815;BME280;75050;53.190;5.562;2024-01-07T07:35:40;102754.97;;;4.79;79.14
84815;BME280;75050;53.190;5.562;2024-01-07T07:38:07;102758.44;;;4.76;78.86
84815;BME280;75050;53.190;5.562;2024-01-07T07:40:32;102747.28;;;4.64;78.94
84815;BME280;75050;53.190;5.562;2024-01-07T07:42:58;102752.44;;;4.64;78.76
84815;BME280;75050;53.190;5.562;2024-01-07T07:45:23;102776.47;;;4.79;78.78
84815;BME280;75050;53.190;5.562;2024-01-07T07:47:48;102779.03;;;4.78;78.74
84815;BME280;75050;53.190;5.562;2024-01-07T07:50:14;102802.25;;;4.85;78.90
84815;BME280;75050;53.190;5.562;2024-01-07T07:52:41;102783.38;;;4.73;78.99
84815;BME280;75050;53.190;5.562;2024-01-07T07:55:09;102808.31;;;4.84;78.77
84815;BME280;75050;53.190;5.562;2024-01-07T07:57:34;102812.63;;;4.84;78.79
84815;BME280;75050;53.190;5.562;2024-01-07T07:59:59;102822.09;;;4.82;78.78
84815;BME280;75050;53.190;5.562;2024-01-07T08:02:25;102810.03;;;4.78;78.71
84815;BME280;75050;53.190;5.562;2024-01-07T08:04:50;102822.94;;;4.82;78.70
84815;BME280;75050;53.190;5.562;2024-01-07T08:07:15;102828.94;;;4.81;78.78
84815;BME280;75050;53.190;5.562;2024-01-07T08:09:41;102828.97;;;4.80;78.67
84815;BME280;75050;53.190;5.562;2024-01-07T08:12:06;102840.16;;;4.80;78.69
84815;BME280;75050;53.190;5.562;2024-01-07T08:14:32;102840.16;;;4.80;78.74
84815;BME280;75050;53.190;5.562;2024-01-07T08:16:58;102847.06;;;4.80;78.70
84815;BME280;75050;53.190;5.562;2024-01-07T08:19:24;102848.75;;;4.79;78.53
84815;BME280;75050;53.190;5.562;2024-01-07T08:21:49;102854.78;;;4.78;78.68
84815;BME280;75050;53.190;5.562;2024-01-07T08:24:15;102862.53;;;4.80;78.71
84815;BME280;75050;53.190;5.562;2024-01-07T08:26:40;102851.38;;;4.67;78.44
84815;BME280;75050;53.190;5.562;2024-01-07T08:29:05;102872.88;;;4.78;78.74
84815;BME280;75050;53.190;5.562;2024-01-07T08:31:31;102871.13;;;4.77;78.45
84815;BME280;75050;53.190;5.562;2024-01-07T08:33:56;102873.72;;;4.73;78.40
84815;BME280;75050;53.190;5.562;2024-01-07T08:36:22;102884.03;;;4.77;78.65
84815;BME280;75050;53.190;5.562;2024-01-07T08:38:48;102882.34;;;4.76;78.52
84815;BME280;75050;53.190;5.562;2024-01-07T08:41:15;102883.19;;;4.74;78.58
84815;BME280;75050;53.190;5.562;2024-01-07T08:43:41;102875.44;;;4.68;78.69
84815;BME280;75050;53.190;5.562;2024-01-07T08:46:06;102897.81;;;4.76;78.34
84815;BME280;75050;53.190;5.562;2024-01-07T08:48:32;102900.41;;;4.75;78.49
84815;BME280;75050;53.190;5.562;2024-01-07T08:50:57;102899.53;;;4.74;78.67
84815;BME280;75050;53.190;5.562;2024-01-07T08:53:23;102905.56;;;4.75;78.51
84815;BME280;75050;53.190;5.562;2024-01-07T08:55:48;102889.22;;;4.62;78.20
84815;BME280;75050;53.190;5.562;2024-01-07T08:58:14;102874.59;;;4.56;78.43
84815;BME280;75050;53.190;5.562;2024-01-07T09:00:40;102911.56;;;4.74;78.41
84815;BME280;75050;53.190;5.562;2024-01-07T09:03:05;102909.00;;;4.71;78.23
84815;BME280;75050;53.190;5.562;2024-01-07T09:05:32;102914.16;;;4.74;78.35
84815;BME280;75050;53.190;5.562;2024-01-07T09:07:57;102901.28;;;4.60;78.36
84815;BME280;75050;53.190;5.562;2024-01-07T09:10:23;102926.22;;;4.73;78.63
84815;BME280;75050;53.190;5.562;2024-01-07T09:12:50;102916.75;;;4.69;78.45
84815;BME280;75050;53.190;5.562;2024-01-07T09:15:18;102931.38;;;4.72;78.40
84815;BME280;75050;53.190;5.562;2024-01-07T09:17:43;102921.06;;;4.67;78.47
84815;BME280;75050;53.190;5.562;2024-01-07T09:20:10;102943.44;;;4.73;78.42
84815;BME280;75050;53.190;5.562;2024-01-07T09:22:36;102933.09;;;4.64;78.53
84815;BME280;75050;53.190;5.562;2024-01-07T09:25:05;102945.13;;;4.68;78.33
84815;BME280;75050;53.190;5.562;2024-01-07T09:27:31;102948.59;;;4.71;78.42
84815;BME280;75050;53.190;5.562;2024-01-07T09:29:57;102961.50;;;4.73;78.31
84815;BME280;75050;53.190;5.562;2024-01-07T09:32:22;102961.50;;;4.71;78.49
84815;BME280;75050;53.190;5.562;2024-01-07T09:34:48;102960.66;;;4.72;78.30
84815;BME280;75050;53.190;5.562;2024-01-07T09:37:13;102964.91;;;4.70;78.22
84815;BME280;75050;53.190;5.562;2024-01-07T09:39:42;102967.53;;;4.69;78.44
84815;BME280;75050;53.190;5.562;2024-01-07T09:42:13;102960.63;;;4.68;78.26
84815;BME280;75050;53.190;5.562;2024-01-07T09:44:39;102963.19;;;4.66;78.59
84815;BME280;75050;53.190;5.562;2024-01-07T09:47:05;102982.13;;;4.70;78.37
84815;BME280;75050;53.190;5.562;2024-01-07T09:49:32;102989.03;;;4.71;78.42
84815;BME280;75050;53.190;5.562;2024-01-07T09:52:00;102968.34;;;4.57;78.41
84815;BME280;75050;53.190;5.562;2024-01-07T09:54:28;102995.03;;;4.70;78.29
84815;BME280;75050;53.190;5.562;2024-01-07T09:57:03;102994.19;;;4.69;78.22
84815;BME280;75050;53.190;5.562;2024-01-07T09:59:29;102990.72;;;4.64;78.31
84815;BME280;75050;53.190;5.562;2024-01-07T10:01:55;103001.06;;;4.70;77.90
84815;BME280;75050;53.190;5.562;2024-01-07T10:04:21;103001.94;;;4.71;78.28
84815;BME280;75050;53.190;5.562;2024-01-07T10:06:47;103003.63;;;4.70;78.08
84815;BME280;75050;53.190;5.562;2024-01-07T10:09:15;103007.09;;;4.69;78.36
84815;BME280;75050;53.190;5.562;2024-01-07T10:11:40;102989.03;;;4.63;78.37
84815;BME280;75050;53.190;5.562;2024-01-07T10:14:06;102996.75;;;4.68;78.36
84815;BME280;75050;53.190;5.562;2024-01-07T10:16:33;102994.19;;;4.66;78.37
84815;BME280;75050;53.190;5.562;2024-01-07T10:18:58;103001.06;;;4.70;78.21
84815;BME280;75050;53.190;5.562;2024-01-07T10:21:24;103001.09;;;4.69;78.30
84815;BME280;75050;53.190;5.562;2024-01-07T10:23:49;102999.34;;;4.69;78.40
84815;BME280;75050;53.190;5.562;2024-01-07T10:26:15;102996.78;;;4.63;78.30
84815;BME280;75050;53.190;5.562;2024-01-07T10:28:41;103004.50;;;4.69;78.33
84815;BME280;75050;53.190;5.562;2024-01-07T10:31:09;103007.09;;;4.69;78.09
84815;BME280;75050;53.190;5.562;2024-01-07T10:33:34;103001.94;;;4.69;78.32
84815;BME280;75050;53.190;5.562;2024-01-07T10:36:05;102999.34;;;4.69;77.95
84815;BME280;75050;53.190;5.562;2024-01-07T10:38:32;103007.09;;;4.69;78.26
84815;BME280;75050;53.190;5.562;2024-01-07T10:41:01;103006.25;;;4.69;78.26
84815;BME280;75050;53.190;5.562;2024-01-07T10:43:30;103014.84;;;4.71;78.18
84815;BME280;75050;53.190;5.562;2024-01-07T10:45:59;103007.97;;;4.65;78.22
84815;BME280;75050;53.190;5.562;2024-01-07T10:48:27;103008.81;;;4.61;78.41
84815;BME280;75050;53.190;5.562;2024-01-07T10:50:59;103012.25;;;4.62;78.31
84815;BME280;75050;53.190;5.562;2024-01-07T10:53:25;103020.00;;;4.71;78.14
84815;BME280;75050;53.190;5.562;2024-01-07T10:55:56;103025.16;;;4.71;78.53
84815;BME280;75050;53.190;5.562;2024-01-07T10:58:23;103026.03;;;4.71;78.18
84815;BME280;75050;53.190;5.562;2024-01-07T11:00:49;103019.13;;;4.64;78.25
84815;BME280;75050;53.190;5.562;2024-01-07T11:03:23;103026.00;;;4.68;78.41
84815;BME280;75050;53.190;5.562;2024-01-07T11:06:03;103024.28;;;4.72;78.30
84815;BME280;75050;53.190;5.562;2024-01-07T11:08:39;103025.16;;;4.71;77.86
84815;BME280;75050;53.190;5.562;2024-01-07T11:11:16;103024.28;;;4.70;78.03
84815;BME280;75050;53.190;5.562;2024-01-07T11:13:43;103009.69;;;4.63;78.36
84815;BME280;75050;53.190;5.562;2024-01-07T11:16:09;103029.44;;;4.70;78.18
84815;BME280;75050;53.190;5.562;2024-01-07T11:18:38;103006.25;;;4.61;78.27
84815;BME280;75050;53.190;5.562;2024-01-07T11:21:05;103026.00;;;4.70;78.29
84815;BME280;75050;53.190;5.562;2024-01-07T11:23:32;103022.56;;;4.68;78.29
84815;BME280;75050;53.190;5.562;2024-01-07T11:26:01;103023.44;;;4.67;77.95
84815;BME280;75050;53.190;5.562;2024-01-07T11:28:51;103030.34;;;4.71;78.36
84815;BME280;75050;53.190;5.562;2024-01-07T11:31:19;103026.88;;;4.70;78.23
84815;BME280;75050;53.190;5.562;2024-01-07T11:33:46;103028.59;;;4.71;78.19
84815;BME280;75050;53.190;5.562;2024-01-07T11:36:15;103001.94;;;4.56;78.24
84815;BME280;75050;53.190;5.562;2024-01-07T11:38:43;103030.34;;;4.71;78.15
84815;BME280;75050;53.190;5.562;2024-01-07T11:41:09;103011.38;;;4.63;78.00
84815;BME280;75050;53.190;5.562;2024-01-07T11:43:36;103027.75;;;4.69;78.21
84815;BME280;75050;53.190;5.562;2024-01-07T11:46:01;103016.56;;;4.61;78.00
84815;BME280;75050;53.190;5.562;2024-01-07T11:48:27;103028.59;;;4.68;78.09
84815;BME280;75050;53.190;5.562;2024-01-07T11:50:52;103007.94;;;4.54;78.18
84815;BME280;75050;53.190;5.562;2024-01-07T11:53:18;103022.56;;;4.66;78.17
84815;BME280;75050;53.190;5.562;2024-01-07T11:55:44;103014.81;;;4.66;77.97
84815;BME280;75050;53.190;5.562;2024-01-07T11:58:10;103001.06;;;4.58;78.09
84815;BME280;75050;53.190;5.562;2024-01-07T12:00:35;103018.28;;;4.71;78.21
84815;BME280;75050;53.190;5.562;2024-01-07T12:03:01;103024.28;;;4.72;78.11
84815;BME280;75050;53.190;5.562;2024-01-07T12:05:28;103027.75;;;4.72;78.21
84815;BME280;75050;53.190;5.562;2024-01-07T12:07:53;103036.34;;;4.73;78.29
84815;BME280;75050;53.190;5.562;2024-01-07T12:10:19;103030.34;;;4.72;78.00
84815;BME280;75050;53.190;5.562;2024-01-07T12:12:45;103034.63;;;4.73;77.83
84815;BME280;75050;53.190;5.562;2024-01-07T12:15:10;103032.06;;;4.69;78.27
84815;BME280;75050;53.190;5.562;2024-01-07T12:17:40;103027.75;;;4.72;78.12
84815;BME280;75050;53.190;5.562;2024-01-07T12:20:06;103026.03;;;4.71;78.05
84815;BME280;75050;53.190;5.562;2024-01-07T12:22:37;103030.31;;;4.74;78.18
84815;BME280;75050;53.190;5.562;2024-01-07T12:25:03;103030.34;;;4.72;78.26
84815;BME280;75050;53.190;5.562;2024-01-07T12:27:29;103004.50;;;4.60;78.24
84815;BME280;75050;53.190;5.562;2024-01-07T12:29:58;103026.88;;;4.70;78.19
84815;BME280;75050;53.190;5.562;2024-01-07T12:32:29;103028.59;;;4.71;78.23
84815;BME280;75050;53.190;5.562;2024-01-07T12:35:01;103033.75;;;4.71;78.22
84815;BME280;75050;53.190;5.562;2024-01-07T12:37:27;103033.78;;;4.73;78.08
84815;BME280;75050;53.190;5.562;2024-01-07T12:39:53;103027.75;;;4.69;77.94
84815;BME280;75050;53.190;5.562;2024-01-07T12:42:19;103038.09;;;4.72;78.13
84815;BME280;75050;53.190;5.562;2024-01-07T12:44:47;103027.75;;;4.71;77.90
84815;BME280;75050;53.190;5.562;2024-01-07T12:47:13;103039.78;;;4.72;78.35
84815;BME280;75050;53.190;5.562;2024-01-07T12:49:39;103037.22;;;4.73;78.20
84815;BME280;75050;53.190;5.562;2024-01-07T12:52:05;103042.38;;;4.73;78.10
84815;BME280;75050;53.190;5.562;2024-01-07T12:54:30;103043.22;;;4.74;78.10